Time;durP1;ratioP1;P1;durP2;ratioP2;P2;SDS_P1;SDS_P2;PMS_P1;PMS_P2;Temp;Humidity;BMP_temperature;BMP_pressure;BME280_temperature;BME280_humidity;BME280_pressure;Samples;Min_cycle;Max_cycle;Signal;HPM_P1;HPM_P2
2022/05/04 00:01:13;;;;;;;0.00;0.00;;;11.70;99.90;;;10.18;82.05;100134.63;10144019;28;98436;-80
2022/05/04 00:06:16;;;;;;;0.00;0.00;;;11.70;99.90;;;10.10;82.21;100130.16;10160669;28;96639;-80
2022/05/04 00:11:19;;;;;;;0.00;0.00;;;11.60;99.90;;;10.04;82.44;100130.84;10169990;28;96948;-81
2022/05/04 00:16:22;;;;;;;0.00;0.00;;;11.50;99.90;;;9.96;82.56;100143.28;10146325;28;96922;-82
2022/05/04 00:21:25;;;;;;;0.00;0.00;;;11.50;99.90;;;9.87;82.58;100131.81;10159306;28;98885;-81
2022/05/04 00:26:28;;;;;;;0.00;0.00;;;11.40;99.90;;;9.76;83.26;100135.63;10145998;28;98209;-81
2022/05/04 00:31:31;;;;;;;0.00;0.00;;;11.30;99.90;;;9.64;83.64;100144.88;10147994;28;96831;-81
2022/05/04 00:36:34;;;;;;;0.00;0.00;;;11.10;99.90;;;9.55;84.27;100149.34;10167481;28;98445;-80
2022/05/04 00:41:37;;;;;;;0.00;0.00;;;11.00;99.90;;;9.48;84.72;100142.22;10150307;28;96658;-80
2022/05/04 00:46:40;;;;;;;0.43;0.43;;;10.90;99.90;;;9.45;84.82;100161.09;10154909;28;98311;-81
2022/05/04 00:51:43;;;;;;;0.00;0.00;;;10.90;99.90;;;9.39;85.19;100160.75;10163571;28;96768;-80
2022/05/04 00:56:45;;;;;;;0.00;0.00;;;10.80;99.90;;;9.41;85.52;100159.75;10166602;28;96648;-80
2022/05/04 01:01:49;;;;;;;0.00;0.00;;;10.80;99.90;;;9.45;85.85;100142.53;10143428;28;96552;-80
2022/05/04 01:06:52;;;;;;;0.00;0.00;;;10.80;99.90;;;9.50;85.70;100140.22;10166563;28;96624;-80
2022/05/04 01:11:55;;;;;;;0.00;0.00;;;10.90;99.90;;;9.53;85.51;100145.19;10139935;28;96661;-80
2022/05/04 01:16:58;;;;;;;0.00;0.00;;;10.90;99.90;;;9.52;85.61;100143.53;10147770;28;96571;-80
2022/05/04 01:22:15;;;;;;;0.00;0.00;;;11.00;99.90;;;9.52;85.46;100149.66;10167426;28;96969;-80
2022/05/04 01:27:19;;;;;;;0.00;0.00;;;11.00;99.90;;;9.47;85.40;100145.84;10165265;28;97437;-80
2022/05/04 01:32:22;;;;;;;1.10;0.77;;;10.90;99.90;;;9.39;85.21;100141.34;10166072;28;96856;-80
2022/05/04 01:37:25;;;;;;;0.00;0.00;;;10.90;99.90;;;9.37;85.25;100152.13;10172034;28;98327;-80
2022/05/04 01:42:28;;;;;;;0.00;0.00;;;10.80;99.90;;;9.34;85.15;100146.31;10172096;28;97398;-80
2022/05/04 01:47:32;;;;;;;0.00;0.00;;;10.80;99.90;;;9.30;85.31;100137.03;10142297;28;96639;-80
2022/05/04 01:52:34;;;;;;;0.00;0.00;;;10.70;99.90;;;9.27;85.26;100134.69;10145960;28;97900;-80
2022/05/04 01:57:37;;;;;;;0.20;0.20;;;10.70;99.90;;;9.20;84.85;100144.28;10165773;28;98551;-80
2022/05/04 02:02:41;;;;;;;0.00;0.00;;;10.70;99.90;;;9.14;85.17;100140.44;10165323;28;96618;-81
2022/05/04 02:07:45;;;;;;;0.33;0.33;;;10.60;99.90;;;9.09;85.11;100137.44;10171343;28;97335;-80
2022/05/04 02:12:48;;;;;;;0.00;0.00;;;10.60;99.90;;;9.02;85.32;100126.66;10154965;28;97236;-80
2022/05/04 02:17:50;;;;;;;0.00;0.00;;;10.50;99.90;;;9.00;85.66;100138.41;10155852;28;97061;-81
2022/05/04 02:22:53;;;;;;;0.00;0.00;;;10.50;99.90;;;9.02;85.75;100142.56;10156250;28;96591;-81
2022/05/04 02:27:56;;;;;;;0.00;0.00;;;10.50;99.90;;;9.02;85.65;100142.56;10155953;28;96554;-81
2022/05/04 02:32:59;;;;;;;0.00;0.00;;;10.50;99.90;;;9.00;85.63;100149.84;10172079;28;96542;-80
2022/05/04 02:38:02;;;;;;;0.00;0.00;;;10.50;99.90;;;8.99;85.86;100137.56;10156195;28;97402;-80
2022/05/04 02:43:07;;;;;;;0.00;0.00;;;10.40;99.90;;;9.00;85.93;100141.06;10166289;28;97031;-80
2022/05/04 02:48:09;;;;;;;0.00;0.00;;;10.50;99.90;;;9.02;85.90;100147.03;10176813;28;97201;-80
2022/05/04 02:53:12;;;;;;;0.00;0.00;;;10.50;99.90;;;9.02;85.70;100149.69;10159103;28;98275;-81
2022/05/04 02:58:15;;;;;;;0.00;0.00;;;10.50;99.90;;;9.00;85.62;100154.31;10152302;28;98496;-80
2022/05/04 03:03:18;;;;;;;0.00;0.00;;;10.50;99.90;;;8.97;85.77;100150.13;10169061;28;98587;-80
2022/05/04 03:08:21;;;;;;;0.00;0.00;;;10.40;99.90;;;8.93;85.74;100147.97;10172251;28;96493;-80
2022/05/04 03:13:24;;;;;;;0.00;0.00;;;10.40;99.90;;;8.88;85.75;100152.94;10171236;28;96569;-80
2022/05/04 03:18:27;;;;;;;0.30;0.30;;;10.40;99.90;;;8.79;85.79;100150.22;10170690;28;96646;-80
2022/05/04 03:23:30;;;;;;;0.00;0.00;;;10.30;99.90;;;8.78;86.13;100155.69;10170126;28;97007;-80
2022/05/04 03:28:33;;;;;;;0.00;0.00;;;10.30;99.90;;;8.75;86.30;100156.81;10169928;28;97326;-80
2022/05/04 03:33:36;;;;;;;0.00;0.00;;;10.30;99.90;;;8.75;86.38;100159.47;10153519;28;96567;-80
2022/05/04 03:38:39;;;;;;;0.00;0.00;;;10.20;99.90;;;8.79;86.41;100157.34;10151387;28;96669;-80
2022/05/04 03:43:42;;;;;;;0.00;0.00;;;10.30;99.90;;;8.82;86.51;100163.16;10167064;28;97462;-80
2022/05/04 03:48:48;;;;;;;0.00;0.00;;;10.30;99.90;;;8.88;86.39;100160.88;10170133;28;97146;-80
2022/05/04 03:53:53;;;;;;;0.00;0.00;;;10.30;99.90;;;8.90;86.36;100169.50;10136988;28;98444;-80
2022/05/04 03:58:56;;;;;;;0.00;0.00;;;10.40;99.90;;;8.93;86.52;100175.28;10148835;28;97609;-80
2022/05/04 04:04:00;;;;;;;0.00;0.00;;;10.40;99.90;;;9.00;86.74;100183.47;10157012;28;97133;-79
2022/05/04 04:09:03;;;;;;;0.00;0.00;;;10.50;99.90;;;9.07;86.92;100173.88;10170163;28;96564;-80
2022/05/04 04:14:06;;;;;;;0.00;0.00;;;10.50;99.90;;;9.16;86.66;100186.19;10153140;28;96758;-80
2022/05/04 04:19:09;;;;;;;0.00;0.00;;;10.60;99.90;;;9.24;86.58;100188.88;10146025;28;98921;-81
2022/05/04 04:24:12;;;;;;;0.00;0.00;;;10.70;99.90;;;9.30;86.72;100187.41;10148964;28;97987;-80
2022/05/04 04:29:15;;;;;;;0.00;0.00;;;10.70;99.90;;;9.36;86.79;100192.91;10189457;28;97570;-80
2022/05/04 04:34:18;;;;;;;0.00;0.00;;;10.80;99.90;;;9.44;86.67;100184.13;10151125;28;96711;-80
2022/05/04 04:39:21;;;;;;;0.00;0.00;;;10.90;99.90;;;9.55;86.76;100191.81;10160230;28;96968;-80
2022/05/04 04:44:24;;;;;;;0.00;0.00;;;10.90;99.90;;;9.66;86.96;100198.63;10148171;28;96671;-80
2022/05/04 04:49:26;;;;;;;0.00;0.00;;;11.00;99.90;;;9.69;86.35;100200.97;10167195;28;98422;-80
2022/05/04 04:54:30;;;;;;;0.97;0.97;;;11.10;99.90;;;9.73;86.23;100204.97;10149056;28;97394;-81
2022/05/04 04:59:32;;;;;;;0.00;0.00;;;11.10;99.90;;;9.80;86.18;100213.09;10149261;28;96867;-81
2022/05/04 05:04:35;;;;;;;0.00;0.00;;;11.10;99.90;;;10.00;86.72;100213.63;10156834;28;96765;-81
2022/05/04 05:09:38;;;;;;;0.30;0.30;;;11.30;99.90;;;10.18;86.34;100220.44;10162468;28;96677;-80
2022/05/04 05:20:04;;;;;;;0.00;0.00;;;11.60;99.90;;;10.64;86.04;100220.00;10151982;28;96657;-80
2022/05/04 05:25:07;;;;;;;0.00;0.00;;;11.90;99.90;;;10.74;85.19;100228.63;10141838;28;96920;-80
2022/05/04 05:30:13;;;;;;;0.00;0.00;;;12.00;99.90;;;10.84;84.88;100221.28;10137611;28;96456;-80
2022/05/04 05:35:16;;;;;;;0.00;0.00;;;12.10;99.90;;;10.92;84.03;100229.25;10152585;28;98412;-80
2022/05/04 05:40:18;;;;;;;0.10;0.10;;;12.20;99.90;;;10.96;83.60;100241.19;10167646;28;96511;-80
2022/05/04 05:45:21;;;;;;;0.00;0.00;;;12.30;99.90;;;11.10;83.35;100230.88;10150591;28;96786;-80
2022/05/04 05:50:24;;;;;;;0.00;0.00;;;12.40;99.90;;;11.19;83.00;100236.00;10168127;28;96507;-80
2022/05/04 05:55:27;;;;;;;0.00;0.00;;;12.60;99.90;;;11.32;83.08;100248.75;10149692;28;96613;-79
2022/05/04 06:00:30;;;;;;;0.00;0.00;;;12.60;99.90;;;11.48;82.62;100253.19;10166039;28;96606;-79
2022/05/04 06:05:33;;;;;;;0.00;0.00;;;12.80;99.90;;;11.62;82.72;100255.13;10165128;28;96497;-78
2022/05/04 06:10:37;;;;;;;0.00;0.00;;;13.00;99.90;;;11.79;82.57;100253.22;10167768;28;96656;-81
2022/05/04 06:15:40;;;;;;;0.00;0.00;;;13.10;99.90;;;11.98;82.01;100254.63;10166926;28;97056;-81
2022/05/04 06:20:43;;;;;;;0.00;0.00;;;13.30;99.90;;;12.23;81.92;100250.81;10174012;28;96505;-81
2022/05/04 06:25:46;;;;;;;0.30;0.30;;;13.50;99.90;;;12.52;80.79;100260.75;10154861;28;96596;-81
2022/05/04 06:36:10;;;;;;;0.63;0.63;;;14.10;99.90;;;13.36;77.69;100241.97;10172790;28;96593;-80
2022/05/04 06:41:14;;;;;;;0.00;0.00;;;14.50;99.90;;;13.82;77.26;100245.22;10169529;28;96916;-80
2022/05/04 06:46:20;;;;;;;0.00;0.00;;;14.90;99.90;;;14.13;74.74;100238.78;10154128;28;96738;-81
2022/05/04 06:51:28;;;;;;;0.00;0.00;;;15.20;99.90;;;14.35;73.08;100242.28;10148966;28;98499;-80
2022/05/04 06:56:31;;;;;;;0.00;0.00;;;15.50;99.90;;;14.59;72.80;100241.91;10146739;28;96653;-80
2022/05/04 07:01:34;;;;;;;0.52;0.22;;;15.70;99.90;;;14.84;71.81;100250.34;10151903;28;96667;-80
2022/05/04 07:06:37;;;;;;;0.30;0.20;;;16.00;99.90;;;14.99;70.17;100245.72;10172582;28;96485;-80
2022/05/04 07:11:40;;;;;;;0.00;0.00;;;16.20;99.90;;;15.19;70.58;100237.81;10179455;28;97176;-79
2022/05/04 07:16:48;;;;;;;0.00;0.00;;;16.40;99.90;;;15.37;70.06;100231.13;10167907;28;97155;-80
2022/05/04 07:21:52;;;;;;;0.00;0.00;;;16.60;99.90;;;15.54;69.70;100237.81;10172071;28;96408;-80
2022/05/04 07:26:55;;;;;;;0.00;0.00;;;16.80;99.90;;;15.74;69.53;100237.91;10173079;28;96941;-80
2022/05/04 07:31:59;;;;;;;0.00;0.00;;;16.90;99.90;;;15.90;69.25;100236.75;10146266;28;96539;-80
2022/05/04 07:37:02;;;;;;;0.00;0.00;;;17.10;99.90;;;16.10;68.95;100237.59;10140763;28;97016;-80
2022/05/04 07:47:30;;;;;;;0.00;0.00;;;17.50;99.90;;;16.60;65.99;100241.56;10157959;28;96902;-80
2022/05/04 07:52:34;;;;;;;0.00;0.00;;;17.80;99.90;;;16.87;64.87;100238.94;10171743;28;96874;-80
2022/05/04 07:57:37;;;;;;;0.00;0.00;;;18.00;99.90;;;17.08;63.34;100232.50;10172868;28;96780;-80
2022/05/04 08:08:09;;;;;;;0.70;0.10;;;18.40;99.00;;;17.64;62.15;100240.00;10154244;28;96585;-79
2022/05/04 08:13:12;;;;;;;0.22;0.22;;;18.70;97.70;;;18.16;61.18;100230.84;10169312;28;96460;-80
2022/05/04 08:18:16;;;;;;;0.17;0.03;;;19.10;98.00;;;18.74;59.65;100232.53;10168922;28;98041;-80
2022/05/04 08:23:19;;;;;;;0.10;0.10;;;19.50;96.00;;;19.04;59.15;100235.34;10168369;28;97497;-80
2022/05/04 08:28:23;;;;;;;0.00;0.00;;;19.80;96.00;;;19.16;56.13;100232.75;10168712;28;96509;-80
2022/05/04 08:33:26;;;;;;;0.15;0.15;;;20.00;93.00;;;19.28;50.19;100240.91;10164959;28;98605;-80
2022/05/04 08:38:29;;;;;;;0.08;0.08;;;20.30;88.60;;;19.32;47.53;100234.88;10152280;28;96655;-79
2022/05/04 08:43:33;;;;;;;0.00;0.00;;;20.50;77.80;;;19.42;48.67;100235.13;10152800;28;96440;-80
2022/05/04 08:48:37;;;;;;;0.22;0.22;;;20.60;77.60;;;19.58;47.72;100228.38;10152693;28;96562;-80
2022/05/04 08:53:42;;;;;;;0.90;0.52;;;20.70;75.30;;;19.76;47.91;100230.22;10168377;28;97462;-81
2022/05/04 08:58:46;;;;;;;0.00;0.00;;;20.90;73.90;;;19.92;47.89;100236.84;10166814;28;96622;-81
2022/05/04 09:03:48;;;;;;;0.00;0.00;;;21.10;72.60;;;19.96;45.40;100233.44;10140394;28;96575;-80
2022/05/04 09:09:10;;;;;;;0.00;0.00;;;21.20;69.20;;;20.00;45.84;100231.97;10151956;28;98286;-81
2022/05/04 09:14:26;;;;;;;0.00;0.00;;;21.20;67.80;;;20.20;44.92;100225.44;10163228;28;98336;-81
2022/05/04 09:19:28;;;;;;;0.30;0.30;;;21.40;66.90;;;20.32;43.93;100223.59;10167046;28;96607;-80
2022/05/04 09:24:31;;;;;;;0.10;0.10;;;21.60;65.10;;;20.49;41.99;100221.09;10168283;28;96676;-80
2022/05/04 09:29:36;;;;;;;0.00;0.00;;;21.70;62.70;;;20.65;40.77;100230.41;10166772;28;96760;-80
2022/05/04 09:34:40;;;;;;;0.38;0.13;;;21.90;60.20;;;20.93;42.16;100233.25;10164020;28;98401;-80
2022/05/04 09:45:17;;;;;;;0.10;0.10;;;22.50;61.80;;;21.53;41.94;100219.44;10152129;28;96788;-79
2022/05/04 09:50:20;;;;;;;0.00;0.00;;;22.80;60.80;;;21.61;40.93;100215.53;10161273;28;96622;-79
2022/05/04 09:55:25;;;;;;;0.00;0.00;;;22.90;59.50;;;21.81;40.01;100209.69;10172691;28;96598;-80
2022/05/04 10:00:28;;;;;;;0.17;0.13;;;23.00;58.70;;;21.66;41.19;100204.00;10152994;28;96635;-80
2022/05/04 10:05:33;;;;;;;0.10;0.10;;;23.00;59.00;;;21.74;40.33;100203.63;10148598;28;98409;-80
2022/05/04 10:10:37;;;;;;;0.32;0.32;;;23.10;57.90;;;21.89;40.16;100202.03;10163634;28;96721;-79
2022/05/04 10:15:41;;;;;;;0.00;0.00;;;23.20;58.20;;;22.02;40.73;100187.38;10160193;28;98080;-79
2022/05/04 10:21:15;;;;;;;0.55;0.20;;;23.30;57.70;;;22.13;39.86;100181.13;10174598;28;96682;-80
2022/05/04 10:26:34;;;;;;;0.08;0.08;;;23.40;56.70;;;21.95;40.60;100183.16;10172777;28;96565;-80
2022/05/04 10:31:37;;;;;;;0.00;0.00;;;23.30;57.20;;;21.68;41.11;100182.94;10151212;28;96641;-80
2022/05/04 10:36:40;;;;;;;0.35;0.35;;;23.10;56.50;;;21.50;40.28;100181.25;10139481;28;98111;-80
2022/05/04 10:41:43;;;;;;;0.03;0.03;;;22.90;56.80;;;21.30;41.42;100178.94;10169981;28;96544;-80
2022/05/04 10:46:49;;;;;;;0.30;0.30;;;22.70;57.60;;;21.26;41.45;100177.75;10155346;28;96542;-80
2022/05/04 10:51:56;;;;;;;0.10;0.10;;;22.70;57.60;;;21.33;41.32;100167.66;10171760;28;96417;-80
2022/05/04 10:56:59;;;;;;;0.00;0.00;;;22.70;56.90;;;21.74;40.64;100169.28;10155368;28;98440;-80
2022/05/04 11:02:10;;;;;;;0.00;0.00;;;22.90;57.00;;;21.99;39.84;100157.28;10140643;28;96853;-79
2022/05/04 11:07:13;;;;;;;0.00;0.00;;;23.10;56.80;;;22.10;39.29;100151.81;10135827;28;96579;-81
2022/05/04 11:12:17;;;;;;;0.00;0.00;;;23.20;54.80;;;22.45;39.12;100145.34;10136503;28;98265;-81
2022/05/04 11:17:33;;;;;;;0.00;0.00;;;23.60;55.90;;;22.91;38.11;100141.47;10180545;28;96736;-81
2022/05/04 11:22:41;;;;;;;0.32;0.32;;;24.00;55.00;;;22.90;36.20;100144.41;10167721;28;96637;-79
2022/05/04 11:27:52;;;;;;;0.20;0.20;;;24.20;52.70;;;22.83;36.70;100138.31;10146932;28;96618;-80
2022/05/04 11:33:00;;;;;;;0.00;0.00;;;24.10;51.40;;;22.83;37.09;100138.31;10142099;28;97509;-80
2022/05/04 11:38:04;;;;;;;0.13;0.13;;;24.10;52.40;;;22.94;37.08;100134.72;10154813;28;96772;-79
2022/05/04 11:43:07;;;;;;;0.00;0.00;;;24.10;53.30;;;22.84;36.10;100138.06;10171153;28;96603;-80
2022/05/04 11:48:11;;;;;;;0.63;0.63;;;24.10;51.20;;;22.82;36.88;100136.69;10153625;28;98572;-80
2022/05/04 11:53:14;;;;;;;0.00;0.00;;;23.90;52.20;;;23.13;37.05;100141.47;10169940;28;96624;-80
2022/05/04 11:58:17;;;;;;;0.00;0.00;;;24.00;53.40;;;23.52;37.02;100135.16;10145229;28;96647;-80
2022/05/04 12:03:21;;;;;;;0.00;0.00;;;24.30;53.30;;;23.53;35.26;100131.34;10141992;28;97764;-80
2022/05/04 12:08:25;;;;;;;0.00;0.00;;;24.50;51.90;;;23.45;35.43;100124.47;10154256;28;96662;-81
2022/05/04 12:13:28;;;;;;;0.00;0.00;;;24.50;52.00;;;23.30;36.54;100132.44;10169309;28;96688;-80
2022/05/04 12:18:34;;;;;;;0.10;0.00;;;24.50;51.60;;;23.03;35.93;100124.25;10153422;28;96677;-81
2022/05/04 12:23:45;;;;;;;0.00;0.00;;;24.30;50.70;;;22.86;35.80;100127.00;10172918;28;96631;-81
2022/05/04 12:34:16;;;;;;;0.00;0.00;;;24.00;50.80;;;22.86;36.24;100116.97;10150471;28;99119;-81
2022/05/04 12:39:22;;;;;;;0.10;0.10;;;24.00;50.60;;;22.96;36.63;100113.59;10152840;28;96621;-79
2022/05/04 12:44:26;;;;;;;0.00;0.00;;;24.00;51.50;;;22.93;36.26;100105.97;10152415;28;96594;-80
2022/05/04 12:49:28;;;;;;;0.00;0.00;;;24.00;51.50;;;22.82;36.33;100104.16;10152474;28;96538;-81
2022/05/04 12:54:32;;;;;;;0.17;0.17;;;24.00;51.70;;;22.37;37.65;100089.75;10160120;28;96543;-80
2022/05/04 12:59:35;;;;;;;0.00;0.00;;;23.70;52.20;;;22.09;38.79;100085.25;10138771;28;96647;-80
2022/05/04 13:04:43;;;;;;;0.10;0.10;;;23.40;52.90;;;22.06;39.23;100090.28;10168234;28;96751;-81
2022/05/04 13:09:46;;;;;;;0.00;0.00;;;23.30;54.00;;;22.09;40.87;100100.63;10163381;28;98212;-80
2022/05/04 13:14:49;;;;;;;0.00;0.00;;;23.40;55.80;;;21.96;41.98;100109.06;10167730;28;96661;-80
2022/05/04 13:19:52;;;;;;;0.00;0.00;;;23.20;56.30;;;21.93;41.57;100104.97;10149341;28;96792;-80
2022/05/04 13:24:57;;;;;;;0.00;0.00;;;23.20;55.70;;;21.89;40.16;100111.91;10150090;28;98598;-80
2022/05/04 13:30:02;;;;;;;0.00;0.00;;;23.20;54.20;;;21.91;41.07;100098.97;10174222;28;96650;-80
2022/05/04 13:35:06;;;;;;;0.10;0.10;;;23.20;55.50;;;22.23;40.82;100098.44;10184158;28;96782;-80
2022/05/04 13:40:10;;;;;;;1.85;0.47;;;23.40;55.40;;;22.74;38.09;100096.50;10157449;28;96923;-80
2022/05/04 13:45:13;;;;;;;0.00;0.00;;;23.90;52.30;;;23.33;36.21;100099.38;10157481;28;96611;-80
2022/05/04 13:55:37;;;;;;;0.00;0.00;;;25.00;49.60;;;24.50;34.37;100076.03;10159486;28;96651;-80
2022/05/04 14:00:42;;;;;;;0.35;0.35;;;25.60;48.80;;;25.04;32.04;100070.31;10140848;28;97458;-80
2022/05/04 14:05:45;;;;;;;0.57;0.40;;;26.30;48.70;;;25.19;31.76;100066.84;10161572;28;98212;-80
2022/05/04 14:10:50;;;;;;;0.00;0.00;;;26.40;46.80;;;25.36;31.07;100068.25;10164908;28;97316;-80
2022/05/04 14:15:58;;;;;;;0.10;0.10;;;26.50;46.50;;;25.21;31.12;100067.44;10156903;28;96655;-80
2022/05/04 14:21:03;;;;;;;0.00;0.00;;;26.50;46.10;;;25.14;29.92;100058.72;10172410;28;96693;-80
2022/05/04 14:26:06;;;;;;;0.38;0.32;;;26.40;44.70;;;24.88;31.21;100061.28;10168379;28;97494;-81
2022/05/04 14:31:09;;;;;;;1.85;0.52;;;26.20;46.10;;;24.22;33.46;100080.72;10155346;28;98445;-81
2022/05/04 14:36:12;;;;;;;0.10;0.10;;;25.60;48.20;;;23.27;36.04;100095.84;10165325;28;96690;-81
2022/05/04 14:41:15;;;;;;;0.10;0.10;;;24.80;49.80;;;22.37;37.88;100091.59;10172338;28;97468;-80
2022/05/04 14:46:18;;;;;;;0.00;0.00;;;23.90;51.30;;;21.83;40.18;100092.09;10173041;28;98643;-80
2022/05/04 14:51:21;;;;;;;0.40;0.22;;;23.30;53.50;;;21.57;41.92;100088.09;10151459;28;97481;-80
2022/05/04 14:56:24;;;;;;;0.00;0.00;;;22.90;55.90;;;21.35;41.96;100087.13;10158303;28;96596;-81
2022/05/04 15:01:27;;;;;;;0.03;0.00;;;22.60;56.10;;;21.23;43.12;100086.31;10154692;28;96752;-79
2022/05/04 15:06:31;;;;;;;0.75;0.10;;;22.50;57.10;;;21.09;42.93;100089.31;10141462;28;96703;-81
2022/05/04 15:11:34;;;;;;;0.00;0.00;;;22.30;56.50;;;21.17;43.31;100092.69;10147029;28;98380;-80
2022/05/04 15:16:38;;;;;;;0.10;0.00;;;22.40;56.60;;;21.43;42.32;100092.16;10170557;28;96836;-80
2022/05/04 15:21:42;;;;;;;0.00;0.00;;;22.60;56.10;;;21.71;42.58;100095.91;10151773;28;96774;-80
2022/05/04 15:26:44;;;;;;;0.05;0.05;;;22.80;56.50;;;22.06;42.90;100095.69;10169731;28;96539;-80
2022/05/04 15:31:52;;;;;;;0.10;0.03;;;23.00;56.80;;;22.33;41.61;100102.13;10150858;28;98575;-80
2022/05/04 15:36:54;;;;;;;0.00;0.00;;;23.20;55.70;;;22.80;40.60;100090.06;10152830;28;97720;-80
2022/05/04 15:41:58;;;;;;;0.00;0.00;;;23.60;54.80;;;23.09;40.00;100079.88;10145790;28;97020;-80
2022/05/04 15:47:02;;;;;;;0.00;0.00;;;23.90;54.50;;;23.66;39.95;100088.38;10163040;28;96617;-80
2022/05/04 15:52:07;;;;;;;0.00;0.00;;;24.40;54.70;;;24.20;38.12;100087.50;10166371;28;98896;-80
2022/05/04 15:57:09;;;;;;;1.98;0.52;;;25.00;54.40;;;24.38;37.03;100073.53;10163108;28;97832;-80
2022/05/04 16:02:12;;;;;;;0.22;0.22;;;25.40;53.40;;;24.03;37.07;100082.19;10145603;28;98529;-80
2022/05/04 16:07:15;;;;;;;0.80;0.28;;;25.40;52.50;;;23.57;38.56;100079.06;10166986;28;96895;-80
2022/05/04 16:12:25;;;;;;;0.20;0.20;;;25.10;52.90;;;23.47;38.18;100081.66;10415786;27;97835;-78
2022/05/04 16:22:50;;;;;;;0.28;0.28;;;24.90;51.20;;;23.14;37.34;100080.75;10343040;28;97450;-80
2022/05/04 16:27:53;;;;;;;0.68;0.30;;;24.60;51.30;;;22.91;37.29;100086.44;10387062;28;96602;-83
2022/05/04 16:32:56;;;;;;;0.20;0.10;;;24.50;51.00;;;22.59;37.70;100087.06;10365464;28;96517;-79
2022/05/04 16:37:59;;;;;;;3.28;1.75;;;24.20;51.20;;;22.43;37.19;100091.47;10363429;28;96910;-78
2022/05/04 16:43:05;;;;;;;0.00;0.00;;;24.00;50.80;;;22.33;37.93;100090.47;10361598;28;97071;-80
2022/05/04 16:48:08;;;;;;;0.00;0.00;;;23.90;51.40;;;22.18;38.61;100097.28;10345730;28;96416;-79
2022/05/04 16:53:11;;;;;;;0.08;0.08;;;23.70;51.80;;;21.81;39.22;100101.50;10370164;28;96454;-79
2022/05/04 16:58:14;;;;;;;0.05;0.05;;;23.40;52.10;;;21.38;40.66;100111.00;10369696;28;96567;-79
2022/05/04 17:03:19;;;;;;;0.00;0.00;;;23.00;52.90;;;20.99;41.44;100112.59;10337360;28;96852;-79
2022/05/04 17:08:22;;;;;;;0.00;0.00;;;22.70;53.60;;;20.68;42.58;100120.03;10349796;28;96489;-79
2022/05/04 17:13:25;;;;;;;0.03;0.03;;;22.30;54.60;;;20.42;42.60;100125.88;10370738;28;97381;-79
2022/05/04 17:18:28;;;;;;;0.00;0.00;;;22.10;54.90;;;20.18;43.91;100143.94;10353974;28;96523;-78
2022/05/04 17:23:31;;;;;;;0.00;0.00;;;21.80;56.40;;;19.98;44.57;100150.47;10335089;28;96533;-80
2022/05/04 17:28:36;;;;;;;0.08;0.05;;;21.50;57.60;;;19.75;45.39;100145.00;10337684;28;96593;-79
2022/05/04 17:39:00;;;;;;;0.00;0.00;;;21.00;58.40;;;19.21;47.45;100146.69;10326556;28;96799;-79
2022/05/04 17:44:06;;;;;;;0.00;0.00;;;20.80;59.70;;;18.96;48.76;100147.59;10341952;28;96494;-79
2022/05/04 17:49:09;;;;;;;0.00;0.00;;;20.50;62.00;;;18.69;49.64;100147.03;10333450;28;96643;-79
2022/05/04 17:54:12;;;;;;;0.10;0.10;;;20.20;63.80;;;18.33;50.83;100147.75;10341567;28;97108;-79
2022/05/04 17:59:15;;;;;;;0.00;0.00;;;19.90;64.20;;;18.03;51.95;100152.13;10363163;28;97749;-78
2022/05/04 18:04:18;;;;;;;0.30;0.30;;;19.50;66.60;;;17.73;53.24;100147.34;10315647;28;96531;-79
2022/05/04 18:09:22;;;;;;;0.00;0.00;;;19.20;67.90;;;17.47;54.56;100158.22;10291303;28;96593;-79
2022/05/04 18:14:25;;;;;;;0.00;0.00;;;18.90;69.60;;;17.16;55.61;100159.78;10365495;28;97418;-79
2022/05/04 18:19:29;;;;;;;0.00;0.00;;;18.60;70.00;;;16.93;55.79;100168.31;10301734;28;96772;-79
2022/05/04 18:24:35;;;;;;;0.00;0.00;;;18.40;70.00;;;16.69;56.24;100179.69;10340021;28;97584;-80
2022/05/04 18:29:38;;;;;;;0.30;0.30;;;18.10;71.40;;;16.41;57.33;100188.75;10310179;28;96873;-80
2022/05/04 18:34:41;;;;;;;0.00;0.00;;;17.90;71.80;;;16.25;57.49;100190.00;10352268;28;96697;-79
2022/05/04 18:39:44;;;;;;;0.00;0.00;;;17.60;72.10;;;16.05;58.80;100189.13;10328929;28;96793;-80
2022/05/04 18:44:47;;;;;;;0.00;0.00;;;17.50;73.90;;;15.84;59.57;100200.03;10340695;28;96729;-80
2022/05/04 18:49:50;;;;;;;0.00;0.00;;;17.20;75.50;;;15.64;60.28;100200.78;10324323;28;97724;-79
2022/05/04 18:54:54;;;;;;;0.00;0.00;;;17.10;76.00;;;15.47;61.17;100200.28;10367198;28;97112;-79
2022/05/04 18:59:58;;;;;;;0.00;0.00;;;16.90;77.90;;;15.34;61.49;100210.09;10332420;28;97994;-79
2022/05/04 19:05:01;;;;;;;0.05;0.05;;;16.70;77.70;;;15.19;62.21;100211.06;10331680;28;96646;-78
2022/05/04 19:10:07;;;;;;;0.00;0.00;;;16.60;80.30;;;15.04;62.67;100213.00;10335561;28;98105;-80
2022/05/04 19:15:10;;;;;;;0.00;0.00;;;16.50;80.50;;;14.92;62.96;100217.25;10329854;28;97633;-79
2022/05/04 19:20:13;;;;;;;0.00;0.00;;;16.30;81.60;;;14.79;63.53;100219.84;10315153;28;96720;-79
2022/05/04 19:25:16;;;;;;;0.25;0.22;;;16.30;81.90;;;14.63;64.46;100227.16;10337221;28;96701;-79
2022/05/04 19:30:19;;;;;;;0.00;0.00;;;16.10;86.70;;;14.50;65.23;100229.69;10336252;28;97640;-79
2022/05/04 19:35:22;;;;;;;0.00;0.00;;;15.90;89.10;;;14.34;66.15;100237.97;10352365;28;98653;-79
2022/05/04 19:40:25;;;;;;;0.00;0.00;;;15.70;91.30;;;14.20;66.38;100240.47;10323619;28;98878;-79
2022/05/04 19:45:29;;;;;;;0.00;0.00;;;15.70;92.00;;;14.10;67.12;100250.69;10313716;28;96761;-80
2022/05/04 19:50:32;;;;;;;0.00;0.00;;;15.50;93.20;;;14.03;67.40;100252.44;10320899;28;98471;-80
2022/05/04 19:55:35;;;;;;;0.00;0.00;;;15.40;93.70;;;13.93;67.66;100275.97;10334222;28;97314;-80
2022/05/04 20:00:38;;;;;;;0.00;0.00;;;15.40;95.60;;;13.74;69.49;100293.41;10350899;28;98655;-81
2022/05/04 20:05:41;;;;;;;0.20;0.20;;;15.10;99.60;;;13.86;69.52;100307.13;10296453;28;96621;-80
2022/05/04 20:10:44;;;;;;;0.00;0.00;;;15.10;99.90;;;14.01;69.43;100299.88;10316139;28;96661;-80
2022/05/04 20:15:46;;;;;;;0.00;0.00;;;15.20;99.90;;;14.12;68.73;100312.78;10326908;28;97715;-80
2022/05/04 20:20:50;;;;;;;0.10;0.10;;;15.40;99.30;;;14.16;68.38;100308.72;10345434;28;97510;-80
2022/05/04 20:25:53;;;;;;;0.00;0.00;;;15.40;99.70;;;14.20;68.30;100309.97;10337749;28;98765;-80
2022/05/04 20:30:56;;;;;;;0.20;0.20;;;15.50;98.90;;;14.25;68.17;100313.94;10332860;28;97304;-80
2022/05/04 20:35:59;;;;;;;0.30;0.30;;;15.50;98.30;;;14.24;67.94;100314.97;10305780;28;96625;-80
2022/05/04 20:41:02;;;;;;;0.00;0.00;;;15.60;98.30;;;14.19;68.21;100323.53;10357182;28;96494;-81
2022/05/04 20:46:07;;;;;;;0.00;0.00;;;15.50;99.40;;;14.13;68.65;100327.78;10323102;28;97468;-80
2022/05/04 20:56:32;;;;;;;0.00;0.00;;;15.40;98.90;;;14.18;68.27;100325.38;10324260;28;98543;-80
2022/05/04 21:01:36;;;;;;;0.00;0.00;;;15.50;98.30;;;14.20;68.93;100330.53;10361537;28;97464;-80
2022/05/04 21:06:39;;;;;;;0.00;0.00;;;15.50;99.90;;;14.19;68.82;100328.88;10315717;28;96485;-81
2022/05/04 21:11:43;;;;;;;0.00;0.00;;;15.50;99.90;;;14.15;69.03;100335.59;10307846;28;98322;-80
2022/05/04 21:16:46;;;;;;;0.00;0.00;;;15.50;99.60;;;14.08;69.30;100327.50;10357255;28;96883;-80
2022/05/04 21:21:49;;;;;;;0.00;0.00;;;15.40;99.90;;;14.02;70.05;100325.59;10301642;28;96688;-80
2022/05/04 21:26:52;;;;;;;0.00;0.00;;;15.40;99.90;;;13.96;70.73;100331.69;10335993;28;96596;-80
2022/05/04 21:31:58;;;;;;;0.03;0.03;;;15.30;99.90;;;13.95;70.71;100332.69;10310386;28;96576;-80
2022/05/04 21:37:06;;;;;;;0.00;0.00;;;15.30;99.90;;;13.87;70.73;100330.16;10325470;28;96566;-80
2022/05/04 21:42:09;;;;;;;0.00;0.00;;;15.30;99.90;;;13.85;71.06;100349.03;10324932;28;96525;-80
2022/05/04 21:47:13;;;;;;;0.20;0.20;;;15.20;99.90;;;13.84;71.42;100343.84;10346875;28;98577;-80